Time;durP1;ratioP1;P1;durP2;ratioP2;P2;SDS_P1;SDS_P2;PMS_P1;PMS_P2;Temp;Humidity;BMP_temperature;BMP_pressure;BME280_temperature;BME280_humidity;BME280_pressure;Samples;Min_cycle;Max_cycle;Signal;HPM_P1;HPM_P2
2023/01/02 00:01:29;;;;;;;;;;;;;;;;;;5107004;28;1243;-75
2023/01/02 00:03:56;;;;;;;;;;;;;;;;;;5107278;28;1310;-75
2023/01/02 00:06:22;;;;;;;;;;;;;;;;;;5105152;28;1670;-75
2023/01/02 00:08:48;;;;;;;;;;;;;;;;;;5094089;28;754;-75
2023/01/02 00:11:15;;;;;;;;;;;;;;;;;;5094018;28;1470;-73
2023/01/02 00:13:42;;;;;;;;;;;;;;;;;;5094187;28;1286;-75
2023/01/02 00:16:08;;;;;;;;;;;;;;;;;;5097035;28;956;-74
2023/01/02 00:18:35;;;;;;;;;;;;;;;;;;5096555;28;1958;-74
2023/01/02 00:21:02;;;;;;;;;;;;;;;;;;5093235;28;1132;-75
2023/01/02 00:23:28;;;;;;;;;;;;;;;;;;5092813;28;1398;-75
2023/01/02 00:25:54;;;;;;;;;;;;;;;;;;5092019;28;1278;-75
2023/01/02 00:28:20;;;;;;;;;;;;;;;;;;5093511;28;969;-75
2023/01/02 00:30:48;;;;;;;;;;;;;;;;;;5093454;28;1083;-75
2023/01/02 00:33:14;;;;;;;;;;;;;;;;;;5092718;28;1466;-75
2023/01/02 00:35:41;;;;;;;;;;;;;;;;;;5092719;28;1119;-75
2023/01/02 00:38:07;;;;;;;;;;;;;;;;;;5093292;28;1906;-75
2023/01/02 00:40:33;;;;;;;;;;;;;;;;;;5093253;28;869;-74
2023/01/02 00:42:59;;;;;;;;;;;;;;;;;;5092137;28;1401;-75
2023/01/02 00:45:25;;;;;;;;;;;;;;;;;;5093223;28;849;-75
2023/01/02 00:47:53;;;;;;;;;;;;;;;;;;5092003;28;1191;-75
2023/01/02 00:50:19;;;;;;;;;;;;;;;;;;5092015;28;1288;-74
2023/01/02 00:52:45;;;;;;;;;;;;;;;;;;5092388;28;1328;-75
2023/01/02 00:55:11;;;;;;;;;;;;;;;;;;5093420;28;988;-75
2023/01/02 00:57:39;;;;;;;;;;;;;;;;;;5091907;28;1977;-75
2023/01/02 01:00:06;;;;;;;;;;;;;;;;;;5093225;28;834;-75
2023/01/02 01:02:32;;;;;;;;;;;;;;;;;;5090917;28;1361;-74
2023/01/02 01:04:59;;;;;;;;;;;;;;;;;;5092639;28;1067;-75
2023/01/02 01:07:25;;;;;;;;;;;;;;;;;;5091581;28;1328;-75
2023/01/02 01:09:52;;;;;;;;;;;;;;;;;;5092887;28;849;-75
2023/01/02 01:12:18;;;;;;;;;;;;;;;;;;5090766;28;1102;-75
2023/01/02 01:14:44;;;;;;;;;;;;;;;;;;5091388;28;1402;-75
2023/01/02 01:17:10;;;;;;;;;;;;;;;;;;5091872;28;1914;-75
2023/01/02 01:19:36;;;;;;;;;;;;;;;;;;5082496;28;1437;-74
2023/01/02 01:22:04;;;;;;;;;;;;;;;;;;5112170;28;1063;-75
2023/01/02 01:24:30;;;;;;;;;;;;;;;;;;5112869;28;1260;-75
2023/01/02 01:26:56;;;;;;;;;;;;;;;;;;5111503;28;1275;-75
2023/01/02 01:29:22;;;;;;;;;;;;;;;;;;5112981;28;813;-75
2023/01/02 01:31:49;;;;;;;;;;;;;;;;;;5110840;28;1099;-75
2023/01/02 01:34:15;;;;;;;;;;;;;;;;;;5112699;28;1399;-75
2023/01/02 01:36:41;;;;;;;;;;;;;;;;;;5112569;28;905;-75
2023/01/02 01:39:08;;;;;;;;;;;;;;;;;;5113012;28;1976;-75
2023/01/02 01:41:35;;;;;;;;;;;;;;;;;;5112452;28;817;-75
2023/01/02 01:44:02;;;;;;;;;;;;;;;;;;5114633;28;1367;-74
2023/01/02 01:46:30;;;;;;;;;;;;;;;;;;5104709;28;1921;-74
2023/01/02 01:48:57;;;;;;;;;;;;;;;;;;5097801;28;1747;-75
2023/01/02 01:51:24;;;;;;;;;;;;;;;;;;5075684;28;1046;-75
2023/01/02 01:53:50;;;;;;;;;;;;;;;;;;5075738;28;1290;-75
2023/01/02 01:56:18;;;;;;;;;;;;;;;;;;5075770;28;873;-75
2023/01/02 01:58:44;;;;;;;;;;;;;;;;;;5075911;28;1983;-75
2023/01/02 02:01:11;;;;;;;;;;;;;;;;;;5076006;28;1321;-75
2023/01/02 02:03:37;;;;;;;;;;;;;;;;;;5075187;28;1345;-75
2023/01/02 02:06:03;;;;;;;;;;;;;;;;;;5075818;28;1103;-75
2023/01/02 02:08:32;;;;;;;;;;;;;;;;;;5093943;28;1459;-75
2023/01/02 02:10:58;;;;;;;;;;;;;;;;;;5095996;28;991;-75
2023/01/02 02:13:25;;;;;;;;;;;;;;;;;;5095084;28;1361;-75
2023/01/02 02:15:53;;;;;;;;;;;;;;;;;;5096488;28;856;-74
2023/01/02 02:18:23;;;;;;;;;;;;;;;;;;5095948;28;1906;-75
2023/01/02 02:20:50;;;;;;;;;;;;;;;;;;5094816;28;1249;-75
2023/01/02 02:23:32;;;;;;;;;;;;;;;;;;5093894;28;1278;-75
2023/01/02 02:26:01;;;;;;;;;;;;;;;;;;5094798;28;1110;-75
2023/01/02 02:28:37;;;;;;;;;;;;;;;;;;5095841;28;1122;-74
2023/01/02 02:31:06;;;;;;;;;;;;;;;;;;5096114;28;1044;-74
2023/01/02 02:33:35;;;;;;;;;;;;;;;;;;5093809;28;1359;-75
2023/01/02 02:36:03;;;;;;;;;;;;;;;;;;5094716;28;1355;-75
2023/01/02 02:38:43;;;;;;;;;;;;;;;;;;5096471;28;1918;-75
2023/01/02 02:41:11;;;;;;;;;;;;;;;;;;5103166;28;984;-74
2023/01/02 02:43:41;;;;;;;;;;;;;;;;;;5111304;28;1390;-75
2023/01/02 02:46:10;;;;;;;;;;;;;;;;;;5104054;28;1960;-76
2023/01/02 02:48:38;;;;;;;;;;;;;;;;;;5074552;28;1478;-75
2023/01/02 02:51:05;;;;;;;;;;;;;;;;;;5075165;28;822;-75
2023/01/02 02:53:32;;;;;;;;;;;;;;;;;;5074176;28;1288;-75
2023/01/02 02:55:59;;;;;;;;;;;;;;;;;;5074886;28;1043;-75
2023/01/02 02:58:26;;;;;;;;;;;;;;;;;;5074445;28;1914;-75
2023/01/02 03:01:00;;;;;;;;;;;;;;;;;;5074838;28;794;-75
2023/01/02 03:03:28;;;;;;;;;;;;;;;;;;5072766;28;1372;-74
2023/01/02 03:05:59;;;;;;;;;;;;;;;;;;5074322;28;1098;-75
2023/01/02 03:08:28;;;;;;;;;;;;;;;;;;5075038;28;1068;-75
2023/01/02 03:10:56;;;;;;;;;;;;;;;;;;5074814;28;1196;-75
2023/01/02 03:13:23;;;;;;;;;;;;;;;;;;5074149;28;1388;-75
2023/01/02 03:15:51;;;;;;;;;;;;;;;;;;5074699;28;1118;-75
2023/01/02 03:18:19;;;;;;;;;;;;;;;;;;5073441;28;1910;-74
2023/01/02 03:20:48;;;;;;;;;;;;;;;;;;5073085;28;1191;-75
2023/01/02 03:23:16;;;;;;;;;;;;;;;;;;5073758;28;1282;-75
2023/01/02 03:25:42;;;;;;;;;;;;;;;;;;5074253;28;1126;-74
2023/01/02 03:28:08;;;;;;;;;;;;;;;;;;5074551;28;898;-74
2023/01/02 03:30:35;;;;;;;;;;;;;;;;;;5074334;28;767;-75
2023/01/02 03:33:02;;;;;;;;;;;;;;;;;;5073603;28;1364;-74
2023/01/02 03:35:29;;;;;;;;;;;;;;;;;;5073550;28;1245;-75
2023/01/02 03:37:57;;;;;;;;;;;;;;;;;;5074229;28;1914;-75
2023/01/02 03:40:25;;;;;;;;;;;;;;;;;;5074360;28;798;-75
2023/01/02 03:42:51;;;;;;;;;;;;;;;;;;5071926;28;1407;-75
2023/01/02 03:45:18;;;;;;;;;;;;;;;;;;5072766;28;1333;-75
2023/01/02 03:47:46;;;;;;;;;;;;;;;;;;5072931;28;1127;-75
2023/01/02 03:50:14;;;;;;;;;;;;;;;;;;5072770;28;1170;-75
2023/01/02 03:52:40;;;;;;;;;;;;;;;;;;5073047;28;1276;-74
2023/01/02 03:55:08;;;;;;;;;;;;;;;;;;5073982;28;860;-74
2023/01/02 03:57:35;;;;;;;;;;;;;;;;;;5073952;28;960;-75
2023/01/02 04:00:03;;;;;;;;;;;;;;;;;;5079723;22;1970;-76
2023/01/02 04:02:40;;;;;;;;;;;;;;;;;;5078281;28;1124;-78
2023/01/02 04:05:07;;;;;;;;;;;;;;;;;;5073640;28;1063;-77
2023/01/02 04:07:34;;;;;;;;;;;;;;;;;;5073667;28;1115;-78
2023/01/02 04:10:00;;;;;;;;;;;;;;;;;;5059765;28;1431;-77
2023/01/02 04:12:28;;;;;;;;;;;;;;;;;;5093049;28;1064;-76
2023/01/02 04:14:55;;;;;;;;;;;;;;;;;;5093700;28;771;-77
2023/01/02 04:17:22;;;;;;;;;;;;;;;;;;5093890;28;1126;-77
2023/01/02 04:19:48;;;;;;;;;;;;;;;;;;5075357;28;1918;-77
2023/01/02 04:22:17;;;;;;;;;;;;;;;;;;5092925;28;1063;-77
2023/01/02 04:24:45;;;;;;;;;;;;;;;;;;5093669;28;965;-77
2023/01/02 04:27:14;;;;;;;;;;;;;;;;;;5075369;28;1151;-76
2023/01/02 04:29:41;;;;;;;;;;;;;;;;;;5068147;28;1694;-76
2023/01/02 04:32:09;;;;;;;;;;;;;;;;;;5077968;28;1183;-76
2023/01/02 04:34:35;;;;;;;;;;;;;;;;;;5093384;28;1122;-76
2023/01/02 04:37:01;;;;;;;;;;;;;;;;;;5075093;28;1449;-76
2023/01/02 04:39:27;;;;;;;;;;;;;;;;;;5093068;28;1905;-76
2023/01/02 04:41:54;;;;;;;;;;;;;;;;;;5092677;28;820;-76
2023/01/02 04:44:21;;;;;;;;;;;;;;;;;;5093236;28;767;-76
2023/01/02 04:46:48;;;;;;;;;;;;;;;;;;5093503;28;1056;-76
2023/01/02 04:49:15;;;;;;;;;;;;;;;;;;5093473;28;1320;-77
2023/01/02 04:51:41;;;;;;;;;;;;;;;;;;5092462;28;1221;-77
2023/01/02 04:54:08;;;;;;;;;;;;;;;;;;5074903;28;1365;-76
2023/01/02 04:56:34;;;;;;;;;;;;;;;;;;5093127;28;866;-76
2023/01/02 04:59:01;;;;;;;;;;;;;;;;;;5074091;28;1902;-76
2023/01/02 05:01:27;;;;;;;;;;;;;;;;;;5074093;28;1175;-76
2023/01/02 05:03:54;;;;;;;;;;;;;;;;;;5092873;28;984;-76
2023/01/02 05:06:20;;;;;;;;;;;;;;;;;;5092743;28;1071;-76
2023/01/02 05:08:47;;;;;;;;;;;;;;;;;;5074560;28;1309;-76
2023/01/02 05:11:14;;;;;;;;;;;;;;;;;;5092608;28;1052;-74
2023/01/02 05:13:40;;;;;;;;;;;;;;;;;;5074257;28;1299;-77
2023/01/02 05:16:07;;;;;;;;;;;;;;;;;;5072845;28;1403;-76
2023/01/02 05:18:33;;;;;;;;;;;;;;;;;;5101221;28;1975;-75
2023/01/02 05:21:01;;;;;;;;;;;;;;;;;;5065457;28;1181;-76
2023/01/02 05:26:11;;;;;;;;;;;;;;;;;;5081751;28;1322;-76
2023/01/02 05:28:37;;;;;;;;;;;;;;;;;;5099493;28;1590;-75
2023/01/02 05:31:04;;;;;;;;;;;;;;;;;;5070480;28;1411;-76
2023/01/02 05:33:30;;;;;;;;;;;;;;;;;;5079605;28;1118;-78
2023/01/02 05:35:56;;;;;;;;;;;;;;;;;;5095768;28;1127;-76
2023/01/02 05:38:24;;;;;;;;;;;;;;;;;;5092108;28;1968;-76
2023/01/02 05:40:50;;;;;;;;;;;;;;;;;;5084605;28;1422;-76
2023/01/02 05:43:16;;;;;;;;;;;;;;;;;;5091830;28;1032;-76
2023/01/02 05:45:42;;;;;;;;;;;;;;;;;;5097184;28;1394;-76
2023/01/02 05:48:09;;;;;;;;;;;;;;;;;;5074079;28;1172;-73
2023/01/02 05:50:35;;;;;;;;;;;;;;;;;;5054131;28;1381;-76
2023/01/02 05:53:01;;;;;;;;;;;;;;;;;;5071210;28;925;-76
2023/01/02 05:55:29;;;;;;;;;;;;;;;;;;5072065;28;1118;-76
2023/01/02 05:57:58;;;;;;;;;;;;;;;;;;5055710;28;1192;-76
2023/01/02 06:00:24;;;;;;;;;;;;;;;;;;5091608;28;1971;-77
2023/01/02 06:02:52;;;;;;;;;;;;;;;;;;5091593;28;793;-76
2023/01/02 06:05:18;;;;;;;;;;;;;;;;;;5091745;28;1379;-77
2023/01/02 06:07:44;;;;;;;;;;;;;;;;;;5092285;28;1514;-76
2023/01/02 06:10:11;;;;;;;;;;;;;;;;;;5064437;28;1474;-75
2023/01/02 06:12:38;;;;;;;;;;;;;;;;;;5070263;28;1252;-77
2023/01/02 06:15:05;;;;;;;;;;;;;;;;;;5091698;28;1215;-76
2023/01/02 06:17:31;;;;;;;;;;;;;;;;;;5091630;28;1294;-76
2023/01/02 06:19:57;;;;;;;;;;;;;;;;;;5091473;28;1914;-76
2023/01/02 06:22:23;;;;;;;;;;;;;;;;;;5067437;28;1330;-77
2023/01/02 06:24:50;;;;;;;;;;;;;;;;;;5091725;28;1329;-76
2023/01/02 06:27:16;;;;;;;;;;;;;;;;;;5072727;28;1422;-76
2023/01/02 06:29:43;;;;;;;;;;;;;;;;;;5083739;28;1355;-74
2023/01/02 06:32:09;;;;;;;;;;;;;;;;;;5058158;28;1597;-76
2023/01/02 06:34:36;;;;;;;;;;;;;;;;;;5063262;28;1348;-77
2023/01/02 06:37:02;;;;;;;;;;;;;;;;;;5009586;28;1371;-77
2023/01/02 06:39:29;;;;;;;;;;;;;;;;;;5001023;28;2001;-77
2023/01/02 06:41:55;;;;;;;;;;;;;;;;;;5002322;28;1138;-77
2023/01/02 06:44:22;;;;;;;;;;;;;;;;;;5029671;28;841;-77
2023/01/02 06:46:50;;;;;;;;;;;;;;;;;;5032612;28;877;-77
2023/01/02 06:49:17;;;;;;;;;;;;;;;;;;5018896;28;1475;-77
2023/01/02 06:51:43;;;;;;;;;;;;;;;;;;5004418;28;1097;-76
2023/01/02 06:54:10;;;;;;;;;;;;;;;;;;5015101;28;1133;-77
2023/01/02 06:56:37;;;;;;;;;;;;;;;;;;5025191;28;1543;-76
2023/01/02 06:59:04;;;;;;;;;;;;;;;;;;5010921;28;1930;-76
2023/01/02 07:01:31;;;;;;;;;;;;;;;;;;5008388;28;1133;-76
2023/01/02 07:03:59;;;;;;;;;;;;;;;;;;5025656;28;1577;-76
2023/01/02 07:06:29;;;;;;;;;;;;;;;;;;5025437;28;1516;-76
2023/01/02 07:08:55;;;;;;;;;;;;;;;;;;4990355;28;1448;-76
2023/01/02 07:11:23;;;;;;;;;;;;;;;;;;5020381;28;1591;-77
2023/01/02 07:13:50;;;;;;;;;;;;;;;;;;5009451;28;988;-75
2023/01/02 07:16:17;;;;;;;;;;;;;;;;;;5008880;28;1498;-77
2023/01/02 07:18:43;;;;;;;;;;;;;;;;;;5028611;28;1361;-79
2023/01/02 07:21:22;;;;;;;;;;;;;;;;;;5022405;28;1963;-77
2023/01/02 07:23:56;;;;;;;;;;;;;;;;;;5003205;28;1605;-75
2023/01/02 07:26:23;;;;;;;;;;;;;;;;;;5016521;28;1188;-75
2023/01/02 07:28:50;;;;;;;;;;;;;;;;;;5006838;28;1357;-76
2023/01/02 07:31:16;;;;;;;;;;;;;;;;;;5030714;28;1279;-77
2023/01/02 07:33:43;;;;;;;;;;;;;;;;;;4981025;28;1499;-77
2023/01/02 07:36:12;;;;;;;;;;;;;;;;;;4998625;28;1679;-76
2023/01/02 07:38:38;;;;;;;;;;;;;;;;;;5059033;28;1522;-75
2023/01/02 07:41:04;;;;;;;;;;;;;;;;;;5077088;28;1910;-75
2023/01/02 07:43:31;;;;;;;;;;;;;;;;;;5074108;28;1505;-76
2023/01/02 07:46:01;;;;;;;;;;;;;;;;;;5077290;28;1228;-76
2023/01/02 07:48:28;;;;;;;;;;;;;;;;;;5074371;28;980;-76
2023/01/02 07:50:58;;;;;;;;;;;;;;;;;;5074120;28;1344;-75
2023/01/02 07:53:26;;;;;;;;;;;;;;;;;;5090367;28;1391;-76
2023/01/02 07:55:52;;;;;;;;;;;;;;;;;;5083457;28;1398;-77
2023/01/02 07:58:20;;;;;;;;;;;;;;;;;;5068062;28;1239;-76
2023/01/02 08:00:46;;;;;;;;;;;;;;;;;;5094327;28;1906;-77
2023/01/02 08:03:12;;;;;;;;;;;;;;;;;;5096951;28;1720;-76
2023/01/02 08:05:39;;;;;;;;;;;;;;;;;;5087847;28;1018;-77
2023/01/02 08:08:05;;;;;;;;;;;;;;;;;;5091284;28;1240;-76
2023/01/02 08:10:33;;;;;;;;;;;;;;;;;;5093559;28;1443;-77
2023/01/02 08:12:59;;;;;;;;;;;;;;;;;;5095914;28;882;-77
2023/01/02 08:15:25;;;;;;;;;;;;;;;;;;5090766;28;2192;-75
2023/01/02 08:17:51;;;;;;;;;;;;;;;;;;5067965;28;1258;-75
2023/01/02 08:20:18;;;;;;;;;;;;;;;;;;5057612;28;1907;-75
2023/01/02 08:22:44;;;;;;;;;;;;;;;;;;5072859;28;817;-76
2023/01/02 08:25:10;;;;;;;;;;;;;;;;;;5055461;28;1151;-75
2023/01/02 08:27:39;;;;;;;;;;;;;;;;;;5055523;28;1269;-75
2023/01/02 08:30:06;;;;;;;;;;;;;;;;;;5055282;28;1407;-75
2023/01/02 08:32:34;;;;;;;;;;;;;;;;;;5072619;28;1106;-75
2023/01/02 08:35:00;;;;;;;;;;;;;;;;;;5055140;28;1246;-75
2023/01/02 08:37:27;;;;;;;;;;;;;;;;;;5072862;28;1134;-75
2023/01/02 08:39:53;;;;;;;;;;;;;;;;;;5073076;28;1906;-75
2023/01/02 08:42:20;;;;;;;;;;;;;;;;;;5072218;28;1142;-76
2023/01/02 08:44:47;;;;;;;;;;;;;;;;;;5073051;28;1517;-76
2023/01/02 08:47:14;;;;;;;;;;;;;;;;;;5055076;28;1155;-75
2023/01/02 08:49:40;;;;;;;;;;;;;;;;;;5072980;28;1321;-76
2023/01/02 08:52:06;;;;;;;;;;;;;;;;;;5072555;28;1035;-75
2023/01/02 08:54:32;;;;;;;;;;;;;;;;;;5074083;28;976;-76
2023/01/02 08:56:58;;;;;;;;;;;;;;;;;;5083415;28;1051;-76
2023/01/02 08:59:25;;;;;;;;;;;;;;;;;;5083137;28;1337;-76
2023/01/02 09:01:52;;;;;;;;;;;;;;;;;;5061139;28;1175;-76
2023/01/02 09:04:19;;;;;;;;;;;;;;;;;;5074844;28;1032;-75
2023/01/02 09:06:45;;;;;;;;;;;;;;;;;;5073002;28;988;-76
2023/01/02 09:09:12;;;;;;;;;;;;;;;;;;5072767;28;1320;-77
2023/01/02 09:11:39;;;;;;;;;;;;;;;;;;5072186;28;1137;-76
2023/01/02 09:14:05;;;;;;;;;;;;;;;;;;5072542;28;1119;-76
2023/01/02 09:16:32;;;;;;;;;;;;;;;;;;5072598;28;900;-76
2023/01/02 09:19:00;;;;;;;;;;;;;;;;;;5054856;28;1305;-76
2023/01/02 09:21:27;;;;;;;;;;;;;;;;;;5071880;28;1964;-76
2023/01/02 09:23:53;;;;;;;;;;;;;;;;;;5072703;28;1122;-76
2023/01/02 09:26:20;;;;;;;;;;;;;;;;;;5072626;28;976;-76
2023/01/02 09:28:46;;;;;;;;;;;;;;;;;;5072610;28;1274;-76
2023/01/02 09:31:13;;;;;;;;;;;;;;;;;;5054275;28;1256;-76
2023/01/02 09:33:39;;;;;;;;;;;;;;;;;;5071831;28;1075;-76
2023/01/02 09:36:08;;;;;;;;;;;;;;;;;;5070762;28;1343;-76
2023/01/02 09:38:35;;;;;;;;;;;;;;;;;;5072684;28;951;-76
2023/01/02 09:41:02;;;;;;;;;;;;;;;;;;5072377;28;1972;-76
2023/01/02 09:43:30;;;;;;;;;;;;;;;;;;5071849;28;965;-76
2023/01/02 09:45:57;;;;;;;;;;;;;;;;;;5072415;28;1064;-76
2023/01/02 09:48:23;;;;;;;;;;;;;;;;;;5072723;28;917;-76
2023/01/02 09:50:49;;;;;;;;;;;;;;;;;;5072428;28;1394;-76
2023/01/02 09:53:16;;;;;;;;;;;;;;;;;;5071570;28;996;-76
2023/01/02 09:55:44;;;;;;;;;;;;;;;;;;5088120;28;1467;-76
2023/01/02 09:58:13;;;;;;;;;;;;;;;;;;5098626;28;1343;-76
2023/01/02 10:00:39;;;;;;;;;;;;;;;;;;5089791;22;3660;-75
2023/01/02 10:03:16;;;;;;;;;;;;;;;;;;5050227;28;1749;-77
2023/01/02 10:05:48;;;;;;;;;;;;;;;;;;5047040;28;1487;-77
2023/01/02 10:08:15;;;;;;;;;;;;;;;;;;5049098;28;1577;-77
2023/01/02 10:10:43;;;;;;;;;;;;;;;;;;5052173;28;1387;-76
2023/01/02 10:13:12;;;;;;;;;;;;;;;;;;5036334;28;1459;-77
2023/01/02 10:15:38;;;;;;;;;;;;;;;;;;5041530;28;1143;-77
2023/01/02 10:18:07;;;;;;;;;;;;;;;;;;5018248;28;1214;-77
2023/01/02 10:20:35;;;;;;;;;;;;;;;;;;4998632;28;1915;-77
2023/01/02 10:23:02;;;;;;;;;;;;;;;;;;5015231;28;938;-77
2023/01/02 10:25:30;;;;;;;;;;;;;;;;;;5016227;28;1068;-77
2023/01/02 10:27:58;;;;;;;;;;;;;;;;;;5016799;28;1417;-77
2023/01/02 10:30:24;;;;;;;;;;;;;;;;;;5015354;28;1324;-77
2023/01/02 10:32:52;;;;;;;;;;;;;;;;;;4998420;28;1384;-77
2023/01/02 10:35:22;;;;;;;;;;;;;;;;;;4999271;28;1106;-77
2023/01/02 10:37:49;;;;;;;;;;;;;;;;;;5016784;28;937;-77
2023/01/02 10:40:15;;;;;;;;;;;;;;;;;;4999074;28;1914;-76
2023/01/02 10:42:41;;;;;;;;;;;;;;;;;;4998688;28;1310;-76
2023/01/02 10:45:12;;;;;;;;;;;;;;;;;;5022377;28;1408;-77
2023/01/02 10:47:39;;;;;;;;;;;;;;;;;;5000933;28;1504;-77
2023/01/02 10:50:06;;;;;;;;;;;;;;;;;;5016877;28;970;-78
2023/01/02 10:52:33;;;;;;;;;;;;;;;;;;5016652;28;1467;-77
2023/01/02 10:54:59;;;;;;;;;;;;;;;;;;5017395;28;1072;-77
2023/01/02 10:57:26;;;;;;;;;;;;;;;;;;5016995;28;1084;-77
2023/01/02 10:59:53;;;;;;;;;;;;;;;;;;5017112;28;861;-77
2023/01/02 11:02:26;;;;;;;;;;;;;;;;;;4999332;28;1910;-77
2023/01/02 11:04:52;;;;;;;;;;;;;;;;;;5017595;28;1049;-77
2023/01/02 11:07:23;;;;;;;;;;;;;;;;;;5016961;28;1460;-77
2023/01/02 11:09:53;;;;;;;;;;;;;;;;;;5016096;28;1006;-77
2023/01/02 11:12:19;;;;;;;;;;;;;;;;;;5018730;28;1806;-78
2023/01/02 11:14:45;;;;;;;;;;;;;;;;;;5036534;28;1076;-77
2023/01/02 11:17:13;;;;;;;;;;;;;;;;;;5028354;28;1411;-76
2023/01/02 11:19:41;;;;;;;;;;;;;;;;;;5015970;28;1639;-77
2023/01/02 11:22:07;;;;;;;;;;;;;;;;;;5042819;28;1909;-77
2023/01/02 11:24:34;;;;;;;;;;;;;;;;;;5009586;28;1481;-77
2023/01/02 11:27:00;;;;;;;;;;;;;;;;;;5023924;28;1439;-77
2023/01/02 11:29:28;;;;;;;;;;;;;;;;;;5039114;28;1725;-77
2023/01/02 11:31:56;;;;;;;;;;;;;;;;;;5011095;28;1492;-76
2023/01/02 11:34:23;;;;;;;;;;;;;;;;;;4975937;28;1191;-76
2023/01/02 11:37:05;;;;;;;;;;;;;;;;;;4970312;28;1208;-76
2023/01/02 11:39:33;;;;;;;;;;;;;;;;;;4992032;28;929;-75
2023/01/02 11:44:52;;;;;;;;;;;;;;;;;;4910810;28;1692;-76
2023/01/02 11:47:23;;;;;;;;;;;;;;;;;;4968192;28;1108;-81
2023/01/02 11:49:50;;;;;;;;;;;;;;;;;;4940580;28;1557;-81
2023/01/02 11:52:19;;;;;;;;;;;;;;;;;;4982090;28;1584;-80
2023/01/02 11:54:47;;;;;;;;;;;;;;;;;;4992924;28;847;-80
2023/01/02 11:57:14;;;;;;;;;;;;;;;;;;5004572;28;1589;-79
2023/01/02 11:59:43;;;;;;;;;;;;;;;;;;5031496;28;1369;-80
2023/01/02 12:02:11;;;;;;;;;;;;;;;;;;5035030;28;1910;-80
2023/01/02 12:04:38;;;;;;;;;;;;;;;;;;5032809;28;1377;-78
2023/01/02 12:07:07;;;;;;;;;;;;;;;;;;5004130;28;1450;-79
2023/01/02 12:09:37;;;;;;;;;;;;;;;;;;5037014;28;1114;-79
2023/01/02 12:12:08;;;;;;;;;;;;;;;;;;5035457;28;1468;-79
2023/01/02 12:14:39;;;;;;;;;;;;;;;;;;5010395;28;1485;-79
2023/01/02 12:17:06;;;;;;;;;;;;;;;;;;5045566;28;1076;-79
2023/01/02 12:19:39;;;;;;;;;;;;;;;;;;5055892;28;819;-77
2023/01/02 12:22:08;;;;;;;;;;;;;;;;;;5028921;28;1981;-84
2023/01/02 12:24:45;;;;;;;;;;;;;;;;;;5035368;28;1592;-79
2023/01/02 12:27:13;;;;;;;;;;;;;;;;;;5037511;28;1439;-80
2023/01/02 12:29:42;;;;;;;;;;;;;;;;;;5032679;28;1647;-77
2023/01/02 12:32:27;;;;;;;;;;;;;;;;;;5025800;28;1459;-81
2023/01/02 12:34:57;;;;;;;;;;;;;;;;;;5057380;28;1068;-78
2023/01/02 12:37:25;;;;;;;;;;;;;;;;;;5058117;28;1115;-80
2023/01/02 12:40:05;;;;;;;;;;;;;;;;;;5033312;28;1595;-79
2023/01/02 12:42:35;;;;;;;;;;;;;;;;;;5035713;28;1915;-80
2023/01/02 12:45:01;;;;;;;;;;;;;;;;;;5055414;28;901;-79
2023/01/02 12:47:33;;;;;;;;;;;;;;;;;;5031051;28;1441;-79
2023/01/02 12:50:03;;;;;;;;;;;;;;;;;;5043898;28;1187;-79
2023/01/02 12:52:34;;;;;;;;;;;;;;;;;;5034115;28;1309;-79
2023/01/02 12:55:04;;;;;;;;;;;;;;;;;;5016658;28;1453;-79
2023/01/02 12:57:33;;;;;;;;;;;;;;;;;;5038334;28;1465;-79
2023/01/02 13:00:07;;;;;;;;;;;;;;;;;;5037045;28;1558;-79
2023/01/02 13:02:40;;;;;;;;;;;;;;;;;;5031348;28;2037;-78
2023/01/02 13:05:07;;;;;;;;;;;;;;;;;;5041174;28;1437;-78
2023/01/02 13:07:34;;;;;;;;;;;;;;;;;;5030144;28;1595;-78
2023/01/02 13:10:00;;;;;;;;;;;;;;;;;;5026602;28;1142;-77
2023/01/02 13:12:28;;;;;;;;;;;;;;;;;;5033585;28;1624;-78
2023/01/02 13:14:56;;;;;;;;;;;;;;;;;;5030237;28;1282;-75
2023/01/02 13:17:28;;;;;;;;;;;;;;;;;;5030102;28;1364;-76
2023/01/02 13:19:55;;;;;;;;;;;;;;;;;;5012444;28;1413;-77
2023/01/02 13:22:25;;;;;;;;;;;;;;;;;;5032224;28;1902;-78
2023/01/02 13:24:51;;;;;;;;;;;;;;;;;;5016512;28;1125;-78
2023/01/02 13:27:17;;;;;;;;;;;;;;;;;;5033928;28;1068;-77
2023/01/02 13:29:44;;;;;;;;;;;;;;;;;;5033959;28;925;-76
2023/01/02 13:32:12;;;;;;;;;;;;;;;;;;5033635;28;1296;-77
2023/01/02 13:34:39;;;;;;;;;;;;;;;;;;5034279;28;1052;-77
2023/01/02 13:37:06;;;;;;;;;;;;;;;;;;5033503;28;1584;-76
2023/01/02 13:39:35;;;;;;;;;;;;;;;;;;5032238;28;971;-77
2023/01/02 13:44:46;;;;;;;;;;;;;;;;;;5037306;28;775;-77
2023/01/02 13:47:15;;;;;;;;;;;;;;;;;;5037553;28;993;-77
2023/01/02 13:49:41;;;;;;;;;;;;;;;;;;5037777;28;1529;-77
2023/01/02 13:52:13;;;;;;;;;;;;;;;;;;5036554;28;1309;-78
2023/01/02 13:54:41;;;;;;;;;;;;;;;;;;5021515;28;1505;-80
2023/01/02 13:57:15;;;;;;;;;;;;;;;;;;5021623;28;1141;-78
2023/01/02 13:59:49;;;;;;;;;;;;;;;;;;5040316;28;1064;-78
2023/01/02 14:02:19;;;;;;;;;;;;;;;;;;5022359;28;2024;-77
2023/01/02 14:04:45;;;;;;;;;;;;;;;;;;5038836;28;901;-77
2023/01/02 14:07:38;;;;;;;;;;;;;;;;;;5044610;28;1444;-79
2023/01/02 14:10:13;;;;;;;;;;;;;;;;;;4979033;28;1452;-78
2023/01/02 14:12:41;;;;;;;;;;;;;;;;;;4972549;28;1282;-78
2023/01/02 14:15:12;;;;;;;;;;;;;;;;;;4957067;28;1356;-80
2023/01/02 14:17:42;;;;;;;;;;;;;;;;;;4959670;28;1438;-82
2023/01/02 14:20:18;;;;;;;;;;;;;;;;;;4958049;28;937;-79
2023/01/02 14:22:46;;;;;;;;;;;;;;;;;;4963866;28;1938;-79
2023/01/02 14:25:12;;;;;;;;;;;;;;;;;;4974948;28;1493;-81
2023/01/02 14:27:44;;;;;;;;;;;;;;;;;;4946222;28;1598;-80
2023/01/02 14:30:12;;;;;;;;;;;;;;;;;;4946874;28;1033;-79
2023/01/02 14:32:40;;;;;;;;;;;;;;;;;;4977064;28;1333;-80
2023/01/02 14:35:07;;;;;;;;;;;;;;;;;;4978722;28;850;-79
2023/01/02 14:37:37;;;;;;;;;;;;;;;;;;4957805;28;1723;-78
2023/01/02 14:40:10;;;;;;;;;;;;;;;;;;4981384;28;890;-80
2023/01/02 14:45:22;;;;;;;;;;;;;;;;;;4941023;28;1172;-78
2023/01/02 14:47:51;;;;;;;;;;;;;;;;;;4976860;28;1489;-80
2023/01/02 14:50:19;;;;;;;;;;;;;;;;;;4964354;28;913;-80
2023/01/02 14:52:47;;;;;;;;;;;;;;;;;;4957694;28;1287;-79
2023/01/02 14:55:14;;;;;;;;;;;;;;;;;;4958426;28;1103;-80
2023/01/02 14:57:43;;;;;;;;;;;;;;;;;;4955705;28;846;-79
2023/01/02 15:00:16;;;;;;;;;;;;;;;;;;4954453;28;755;-79
2023/01/02 15:02:43;;;;;;;;;;;;;;;;;;4927283;28;1996;-79
2023/01/02 15:05:11;;;;;;;;;;;;;;;;;;4965655;28;1453;-79
2023/01/02 15:07:39;;;;;;;;;;;;;;;;;;4979082;28;937;-79
2023/01/02 15:10:06;;;;;;;;;;;;;;;;;;4975596;28;980;-79
2023/01/02 15:15:28;;;;;;;;;;;;;;;;;;4995629;28;949;-79
2023/01/02 15:17:55;;;;;;;;;;;;;;;;;;4965798;28;1001;-78
2023/01/02 15:20:24;;;;;;;;;;;;;;;;;;4983376;28;1535;-83
2023/01/02 15:22:51;;;;;;;;;;;;;;;;;;5024854;28;2060;-78
2023/01/02 15:25:28;;;;;;;;;;;;;;;;;;5036109;28;1155;-78
2023/01/02 15:27:55;;;;;;;;;;;;;;;;;;5036485;28;882;-78
2023/01/02 15:30:26;;;;;;;;;;;;;;;;;;5018401;28;1256;-78
2023/01/02 15:32:53;;;;;;;;;;;;;;;;;;5019603;28;1586;-79
2023/01/02 15:35:20;;;;;;;;;;;;;;;;;;5041549;28;826;-77
2023/01/02 15:37:48;;;;;;;;;;;;;;;;;;5021460;28;1256;-77
2023/01/02 15:40:15;;;;;;;;;;;;;;;;;;5020003;28;1268;-78
2023/01/02 15:45:25;;;;;;;;;;;;;;;;;;5031624;28;1552;-77
2023/01/02 15:47:51;;;;;;;;;;;;;;;;;;5037646;28;1648;-78
2023/01/02 15:50:19;;;;;;;;;;;;;;;;;;5026074;28;1158;-75
2023/01/02 15:52:48;;;;;;;;;;;;;;;;;;4972378;28;1300;-76
2023/01/02 15:55:15;;;;;;;;;;;;;;;;;;4946741;28;1139;-77
2023/01/02 15:57:46;;;;;;;;;;;;;;;;;;4968341;28;851;-77
2023/01/02 16:00:30;;;;;;;;;;;;;;;;;;4970590;28;886;-76
2023/01/02 16:02:57;;;;;;;;;;;;;;;;;;4944307;28;1942;-75
2023/01/02 16:05:24;;;;;;;;;;;;;;;;;;4982844;28;1305;-75
2023/01/02 16:07:52;;;;;;;;;;;;;;;;;;4951040;28;1117;-76
2023/01/02 16:10:19;;;;;;;;;;;;;;;;;;4969338;28;946;-76
2023/01/02 16:12:50;;;;;;;;;;;;;;;;;;4955586;28;1621;-77
2023/01/02 16:15:17;;;;;;;;;;;;;;;;;;4963934;28;743;-76
2023/01/02 16:17:44;;;;;;;;;;;;;;;;;;4958396;28;1283;-77
2023/01/02 16:20:16;;;;;;;;;;;;;;;;;;4984190;28;1083;-75
2023/01/02 16:22:43;;;;;;;;;;;;;;;;;;4974402;28;1945;-76
2023/01/02 16:25:15;;;;;;;;;;;;;;;;;;4968041;28;937;-75
2023/01/02 16:27:47;;;;;;;;;;;;;;;;;;4980371;22;3743;-73
2023/01/02 16:30:14;;;;;;;;;;;;;;;;;;5020703;28;834;-72
2023/01/02 16:32:46;;;;;;;;;;;;;;;;;;5026152;28;927;-72
2023/01/02 16:35:19;;;;;;;;;;;;;;;;;;5007326;28;1175;-73
2023/01/02 16:37:52;;;;;;;;;;;;;;;;;;5027041;28;1287;-72
2023/01/02 16:40:43;;;;;;;;;;;;;;;;;;5008448;28;1105;-74
2023/01/02 16:43:09;;;;;;;;;;;;;;;;;;5025165;28;2003;-73
2023/01/02 16:45:37;;;;;;;;;;;;;;;;;;5024962;28;917;-73
2023/01/02 16:48:03;;;;;;;;;;;;;;;;;;5016150;28;1302;-73
2023/01/02 16:50:30;;;;;;;;;;;;;;;;;;5000893;28;1370;-73
2023/01/02 16:52:57;;;;;;;;;;;;;;;;;;5026478;28;1030;-73
2023/01/02 16:55:23;;;;;;;;;;;;;;;;;;5020707;28;1538;-73
2023/01/02 16:57:51;;;;;;;;;;;;;;;;;;5007296;28;1361;-73
2023/01/02 17:00:18;;;;;;;;;;;;;;;;;;5028791;28;932;-74
2023/01/02 17:02:45;;;;;;;;;;;;;;;;;;5027792;28;1999;-73
2023/01/02 17:05:15;;;;;;;;;;;;;;;;;;5018822;28;1046;-73
2023/01/02 17:07:41;;;;;;;;;;;;;;;;;;5000160;28;1360;-73
2023/01/02 17:10:08;;;;;;;;;;;;;;;;;;5024489;28;837;-72
2023/01/02 17:12:34;;;;;;;;;;;;;;;;;;5025288;28;924;-71
2023/01/02 17:15:02;;;;;;;;;;;;;;;;;;5007153;28;1211;-72
2023/01/02 17:17:29;;;;;;;;;;;;;;;;;;5022871;28;1523;-73
2023/01/02 17:19:55;;;;;;;;;;;;;;;;;;5026293;28;877;-73
2023/01/02 17:22:22;;;;;;;;;;;;;;;;;;5002090;28;2016;-74
2023/01/02 17:24:49;;;;;;;;;;;;;;;;;;4990532;28;1077;-76
2023/01/02 17:27:19;;;;;;;;;;;;;;;;;;5002052;28;880;-78